sensor_id;sensor_type;location;lat;lon;timestamp;temperature;humidity
5154;DHT22;2595;53.584;10.084;2022-12-07T00:01:34;4.40;99.90
5154;DHT22;2595;53.584;10.084;2022-12-07T00:04:02;4.40;99.90
5154;DHT22;2595;53.584;10.084;2022-12-07T00:06:39;4.50;99.90
5154;DHT22;2595;53.584;10.084;2022-12-07T00:09:06;4.40;99.90
5154;DHT22;2595;53.584;10.084;2022-12-07T00:11:32;4.40;99.90
5154;DHT22;2595;53.584;10.084;2022-12-07T00:14:00;4.40;99.90
5154;DHT22;2595;53.584;10.084;2022-12-07T00:16:29;4.40;99.90
5154;DHT22;2595;53.584;10.084;2022-12-07T00:18:55;4.50;99.90
5154;DHT22;2595;53.584;10.084;2022-12-07T00:21:24;4.50;99.90
5154;DHT22;2595;53.584;10.084;2022-12-07T00:23:51;4.50;99.90
5154;DHT22;2595;53.584;10.084;2022-12-07T00:26:51;4.50;99.90
5154;DHT22;2595;53.584;10.084;2022-12-07T00:29:17;4.50;99.90
5154;DHT22;2595;53.584;10.084;2022-12-07T00:31:43;4.50;99.90
5154;DHT22;2595;53.584;10.084;2022-12-07T00:34:13;4.50;99.90
5154;DHT22;2595;53.584;10.084;2022-12-07T00:36:39;4.50;99.90
5154;DHT22;2595;53.584;10.084;2022-12-07T00:39:05;4.50;99.90
5154;DHT22;2595;53.584;10.084;2022-12-07T00:41:31;4.50;99.90
5154;DHT22;2595;53.584;10.084;2022-12-07T00:43:56;4.50;99.90
5154;DHT22;2595;53.584;10.084;2022-12-07T00:46:22;4.50;99.90
5154;DHT22;2595;53.584;10.084;2022-12-07T00:48:49;4.50;99.90
5154;DHT22;2595;53.584;10.084;2022-12-07T00:51:17;4.50;99.90
5154;DHT22;2595;53.584;10.084;2022-12-07T00:53:43;4.50;99.90
5154;DHT22;2595;53.584;10.084;2022-12-07T00:56:12;4.50;99.90
5154;DHT22;2595;53.584;10.084;2022-12-07T00:58:38;4.50;99.90
5154;DHT22;2595;53.584;10.084;2022-12-07T01:01:05;4.50;99.90
5154;DHT22;2595;53.584;10.084;2022-12-07T01:03:31;4.50;99.90
5154;DHT22;2595;53.584;10.084;2022-12-07T01:05:57;4.50;99.90
5154;DHT22;2595;53.584;10.084;2022-12-07T01:08:24;4.50;99.90
5154;DHT22;2595;53.584;10.084;2022-12-07T01:11:00;4.50;99.90
5154;DHT22;2595;53.584;10.084;2022-12-07T01:13:25;4.50;99.90
5154;DHT22;2595;53.584;10.084;2022-12-07T01:15:51;4.50;99.90
5154;DHT22;2595;53.584;10.084;2022-12-07T01:18:17;4.50;99.90
5154;DHT22;2595;53.584;10.084;2022-12-07T01:20:42;4.50;99.90
5154;DHT22;2595;53.584;10.084;2022-12-07T01:23:08;4.50;99.90
5154;DHT22;2595;53.584;10.084;2022-12-07T01:25:33;4.60;99.90
5154;DHT22;2595;53.584;10.084;2022-12-07T01:27:59;4.60;99.90
5154;DHT22;2595;53.584;10.084;2022-12-07T01:30:24;4.60;99.90
5154;DHT22;2595;53.584;10.084;2022-12-07T01:32:50;4.60;99.90
5154;DHT22;2595;53.584;10.084;2022-12-07T01:35:16;4.60;99.90
5154;DHT22;2595;53.584;10.084;2022-12-07T01:37:41;4.50;99.90
5154;DHT22;2595;53.584;10.084;2022-12-07T01:40:09;4.50;99.90
5154;DHT22;2595;53.584;10.084;2022-12-07T01:42:35;4.50;99.90
5154;DHT22;2595;53.584;10.084;2022-12-07T01:45:41;4.50;99.90
5154;DHT22;2595;53.584;10.084;2022-12-07T01:48:09;4.50;99.90
5154;DHT22;2595;53.584;10.084;2022-12-07T01:50:36;4.50;99.90
5154;DHT22;2595;53.584;10.084;2022-12-07T01:53:05;4.50;99.90
5154;DHT22;2595;53.584;10.084;2022-12-07T01:55:32;4.50;99.90
5154;DHT22;2595;53.584;10.084;2022-12-07T01:57:58;4.50;99.90
5154;DHT22;2595;53.584;10.084;2022-12-07T02:00:24;4.50;99.90
5154;DHT22;2595;53.584;10.084;2022-12-07T02:03:04;4.50;99.90
5154;DHT22;2595;53.584;10.084;2022-12-07T02:05:31;4.50;99.90
5154;DHT22;2595;53.584;10.084;2022-12-07T02:07:58;4.50;99.90
5154;DHT22;2595;53.584;10.084;2022-12-07T02:10:29;4.50;99.90
5154;DHT22;2595;53.584;10.084;2022-12-07T02:30:19;4.40;99.90
5154;DHT22;2595;53.584;10.084;2022-12-07T02:32:58;4.40;99.90
5154;DHT22;2595;53.584;10.084;2022-12-07T02:35:31;4.40;99.90
5154;DHT22;2595;53.584;10.084;2022-12-07T02:38:18;4.40;99.90
5154;DHT22;2595;53.584;10.084;2022-12-07T02:41:04;4.40;99.90
5154;DHT22;2595;53.584;10.084;2022-12-07T02:43:35;4.30;99.90
5154;DHT22;2595;53.584;10.084;2022-12-07T02:46:25;4.30;99.90
5154;DHT22;2595;53.584;10.084;2022-12-07T02:48:53;4.30;99.90
5154;DHT22;2595;53.584;10.084;2022-12-07T02:51:20;4.30;99.90
5154;DHT22;2595;53.584;10.084;2022-12-07T02:53:46;4.30;99.90
5154;DHT22;2595;53.584;10.084;2022-12-07T02:59:02;4.30;99.90
5154;DHT22;2595;53.584;10.084;2022-12-07T03:07:15;4.20;99.90
5154;DHT22;2595;53.584;10.084;2022-12-07T03:10:00;4.20;99.90
5154;DHT22;2595;53.584;10.084;2022-12-07T03:12:42;4.20;99.90
5154;DHT22;2595;53.584;10.084;2022-12-07T03:15:43;4.20;99.90
5154;DHT22;2595;53.584;10.084;2022-12-07T03:18:07;4.20;99.90
5154;DHT22;2595;53.584;10.084;2022-12-07T03:20:35;4.10;99.90
5154;DHT22;2595;53.584;10.084;2022-12-07T03:23:04;4.10;99.90
5154;DHT22;2595;53.584;10.084;2022-12-07T03:25:32;4.10;99.90
5154;DHT22;2595;53.584;10.084;2022-12-07T03:28:02;4.10;99.90
5154;DHT22;2595;53.584;10.084;2022-12-07T03:30:44;4.10;99.90
5154;DHT22;2595;53.584;10.084;2022-12-07T03:33:31;4.10;99.90
5154;DHT22;2595;53.584;10.084;2022-12-07T03:36:06;4.00;99.90
5154;DHT22;2595;53.584;10.084;2022-12-07T03:38:48;4.00;99.90
5154;DHT22;2595;53.584;10.084;2022-12-07T03:43:43;3.90;99.90
5154;DHT22;2595;53.584;10.084;2022-12-07T03:46:17;3.90;99.90
5154;DHT22;2595;53.584;10.084;2022-12-07T03:48:54;3.90;99.90
5154;DHT22;2595;53.584;10.084;2022-12-07T03:51:25;3.90;99.90
5154;DHT22;2595;53.584;10.084;2022-12-07T03:53:58;3.80;99.90
5154;DHT22;2595;53.584;10.084;2022-12-07T03:56:25;3.80;99.90
5154;DHT22;2595;53.584;10.084;2022-12-07T03:58:52;3.80;99.90
5154;DHT22;2595;53.584;10.084;2022-12-07T04:01:18;3.70;99.90
5154;DHT22;2595;53.584;10.084;2022-12-07T04:03:44;3.70;99.90
5154;DHT22;2595;53.584;10.084;2022-12-07T04:06:09;3.70;99.90
5154;DHT22;2595;53.584;10.084;2022-12-07T04:08:35;3.70;99.90
5154;DHT22;2595;53.584;10.084;2022-12-07T04:11:01;3.70;99.90
5154;DHT22;2595;53.584;10.084;2022-12-07T04:13:27;3.70;99.90
5154;DHT22;2595;53.584;10.084;2022-12-07T04:15:52;3.70;99.90
5154;DHT22;2595;53.584;10.084;2022-12-07T04:18:18;3.70;99.90
5154;DHT22;2595;53.584;10.084;2022-12-07T04:20:43;3.70;99.90
5154;DHT22;2595;53.584;10.084;2022-12-07T04:23:09;3.60;99.90
5154;DHT22;2595;53.584;10.084;2022-12-07T04:25:34;3.60;99.90
5154;DHT22;2595;53.584;10.084;2022-12-07T04:28:00;3.60;99.90
5154;DHT22;2595;53.584;10.084;2022-12-07T04:30:26;3.60;99.90
5154;DHT22;2595;53.584;10.084;2022-12-07T04:32:51;3.60;99.90
5154;DHT22;2595;53.584;10.084;2022-12-07T04:35:17;3.60;99.90
5154;DHT22;2595;53.584;10.084;2022-12-07T04:37:42;3.60;99.90
5154;DHT22;2595;53.584;10.084;2022-12-07T04:40:08;3.60;99.90
5154;DHT22;2595;53.584;10.084;2022-12-07T04:42:36;3.60;99.90
5154;DHT22;2595;53.584;10.084;2022-12-07T04:45:02;3.60;99.90
5154;DHT22;2595;53.584;10.084;2022-12-07T04:47:28;3.60;99.90
5154;DHT22;2595;53.584;10.084;2022-12-07T04:49:53;3.60;99.90
5154;DHT22;2595;53.584;10.084;2022-12-07T04:52:19;3.60;99.90
5154;DHT22;2595;53.584;10.084;2022-12-07T04:54:44;3.60;99.90
5154;DHT22;2595;53.584;10.084;2022-12-07T04:57:10;3.50;99.90
5154;DHT22;2595;53.584;10.084;2022-12-07T04:59:35;3.50;99.90
5154;DHT22;2595;53.584;10.084;2022-12-07T05:02:01;3.50;99.90
5154;DHT22;2595;53.584;10.084;2022-12-07T05:04:27;3.50;99.90
5154;DHT22;2595;53.584;10.084;2022-12-07T05:06:52;3.50;99.90
5154;DHT22;2595;53.584;10.084;2022-12-07T05:09:18;3.50;99.90
5154;DHT22;2595;53.584;10.084;2022-12-07T05:11:43;3.50;99.90
5154;DHT22;2595;53.584;10.084;2022-12-07T05:16:37;3.50;99.90
5154;DHT22;2595;53.584;10.084;2022-12-07T05:19:03;3.50;99.90
5154;DHT22;2595;53.584;10.084;2022-12-07T05:21:28;3.50;99.90
5154;DHT22;2595;53.584;10.084;2022-12-07T05:23:54;3.50;99.90
5154;DHT22;2595;53.584;10.084;2022-12-07T05:26:20;3.50;99.90
5154;DHT22;2595;53.584;10.084;2022-12-07T05:28:49;3.50;99.90
5154;DHT22;2595;53.584;10.084;2022-12-07T05:31:15;3.50;99.90
5154;DHT22;2595;53.584;10.084;2022-12-07T05:33:40;3.50;99.90
5154;DHT22;2595;53.584;10.084;2022-12-07T05:36:06;3.50;99.90
5154;DHT22;2595;53.584;10.084;2022-12-07T05:38:33;3.50;99.90
5154;DHT22;2595;53.584;10.084;2022-12-07T05:41:02;3.50;99.90
5154;DHT22;2595;53.584;10.084;2022-12-07T05:43:29;3.50;99.90
5154;DHT22;2595;53.584;10.084;2022-12-07T05:45:55;3.50;99.90
5154;DHT22;2595;53.584;10.084;2022-12-07T05:48:20;3.50;99.90
5154;DHT22;2595;53.584;10.084;2022-12-07T05:50:49;3.50;99.90
5154;DHT22;2595;53.584;10.084;2022-12-07T05:53:16;3.50;99.90
5154;DHT22;2595;53.584;10.084;2022-12-07T05:55:42;3.50;99.90
5154;DHT22;2595;53.584;10.084;2022-12-07T05:58:07;3.50;99.90
5154;DHT22;2595;53.584;10.084;2022-12-07T06:00:54;3.50;99.90
5154;DHT22;2595;53.584;10.084;2022-12-07T06:03:20;3.50;99.90
5154;DHT22;2595;53.584;10.084;2022-12-07T06:05:45;3.50;99.90
5154;DHT22;2595;53.584;10.084;2022-12-07T06:08:11;3.50;99.90
5154;DHT22;2595;53.584;10.084;2022-12-07T06:10:36;3.50;99.90
5154;DHT22;2595;53.584;10.084;2022-12-07T06:13:02;3.50;99.90
5154;DHT22;2595;53.584;10.084;2022-12-07T06:15:28;3.50;99.90
5154;DHT22;2595;53.584;10.084;2022-12-07T06:17:53;3.50;99.90
5154;DHT22;2595;53.584;10.084;2022-12-07T06:20:19;3.50;99.90
5154;DHT22;2595;53.584;10.084;2022-12-07T06:22:44;3.50;99.90
5154;DHT22;2595;53.584;10.084;2022-12-07T06:25:10;3.50;99.90
5154;DHT22;2595;53.584;10.084;2022-12-07T06:27:35;3.50;99.90
5154;DHT22;2595;53.584;10.084;2022-12-07T06:30:01;3.50;99.90
5154;DHT22;2595;53.584;10.084;2022-12-07T06:32:32;3.50;99.90
5154;DHT22;2595;53.584;10.084;2022-12-07T06:34:58;3.50;99.90
5154;DHT22;2595;53.584;10.084;2022-12-07T06:37:23;3.60;99.90
5154;DHT22;2595;53.584;10.084;2022-12-07T06:39:49;3.50;99.90
5154;DHT22;2595;53.584;10.084;2022-12-07T06:42:14;3.60;99.90
5154;DHT22;2595;53.584;10.084;2022-12-07T06:44:40;3.60;99.90
5154;DHT22;2595;53.584;10.084;2022-12-07T06:47:06;3.60;99.90
5154;DHT22;2595;53.584;10.084;2022-12-07T06:49:33;3.60;99.90
5154;DHT22;2595;53.584;10.084;2022-12-07T06:51:59;3.60;99.90
5154;DHT22;2595;53.584;10.084;2022-12-07T06:54:24;3.60;99.90
5154;DHT22;2595;53.584;10.084;2022-12-07T06:56:50;3.60;99.90
5154;DHT22;2595;53.584;10.084;2022-12-07T06:59:15;3.60;99.90
5154;DHT22;2595;53.584;10.084;2022-12-07T07:01:41;3.60;99.90
5154;DHT22;2595;53.584;10.084;2022-12-07T07:04:07;3.60;99.90
5154;DHT22;2595;53.584;10.084;2022-12-07T07:06:32;3.60;99.90
5154;DHT22;2595;53.584;10.084;2022-12-07T07:08:58;3.60;99.90
5154;DHT22;2595;53.584;10.084;2022-12-07T07:11:24;3.60;99.90
5154;DHT22;2595;53.584;10.084;2022-12-07T07:13:49;3.70;99.90
5154;DHT22;2595;53.584;10.084;2022-12-07T07:16:15;3.70;99.90
5154;DHT22;2595;53.584;10.084;2022-12-07T07:18:40;3.70;99.90
5154;DHT22;2595;53.584;10.084;2022-12-07T07:21:06;3.70;99.90
5154;DHT22;2595;53.584;10.084;2022-12-07T07:23:32;3.70;99.90
5154;DHT22;2595;53.584;10.084;2022-12-07T07:25:57;3.70;99.90
5154;DHT22;2595;53.584;10.084;2022-12-07T07:28:23;3.70;99.90
5154;DHT22;2595;53.584;10.084;2022-12-07T07:30:48;3.70;99.90
5154;DHT22;2595;53.584;10.084;2022-12-07T07:33:14;3.70;99.90
5154;DHT22;2595;53.584;10.084;2022-12-07T07:35:40;3.70;99.90
5154;DHT22;2595;53.584;10.084;2022-12-07T07:38:06;3.70;99.90
5154;DHT22;2595;53.584;10.084;2022-12-07T07:40:32;3.70;99.90
5154;DHT22;2595;53.584;10.084;2022-12-07T07:42:58;3.70;99.90
5154;DHT22;2595;53.584;10.084;2022-12-07T07:45:24;3.70;99.90
5154;DHT22;2595;53.584;10.084;2022-12-07T07:47:51;3.70;99.90
5154;DHT22;2595;53.584;10.084;2022-12-07T07:50:17;3.70;99.90
5154;DHT22;2595;53.584;10.084;2022-12-07T07:52:43;3.70;99.90
5154;DHT22;2595;53.584;10.084;2022-12-07T07:55:09;3.70;99.90
5154;DHT22;2595;53.584;10.084;2022-12-07T07:57:36;3.70;99.90
5154;DHT22;2595;53.584;10.084;2022-12-07T08:00:07;3.70;99.90
5154;DHT22;2595;53.584;10.084;2022-12-07T08:02:33;3.70;99.90
5154;DHT22;2595;53.584;10.084;2022-12-07T08:04:59;3.70;99.90
5154;DHT22;2595;53.584;10.084;2022-12-07T08:07:25;3.70;99.90
5154;DHT22;2595;53.584;10.084;2022-12-07T08:09:52;3.80;99.90
5154;DHT22;2595;53.584;10.084;2022-12-07T08:12:17;3.70;99.90
5154;DHT22;2595;53.584;10.084;2022-12-07T08:14:43;3.80;99.90
5154;DHT22;2595;53.584;10.084;2022-12-07T08:17:08;3.80;99.90
5154;DHT22;2595;53.584;10.084;2022-12-07T08:19:34;3.80;99.90
5154;DHT22;2595;53.584;10.084;2022-12-07T08:22:00;3.80;99.90
5154;DHT22;2595;53.584;10.084;2022-12-07T08:24:25;3.80;99.90
5154;DHT22;2595;53.584;10.084;2022-12-07T08:26:51;3.80;99.90
5154;DHT22;2595;53.584;10.084;2022-12-07T08:29:17;3.80;99.90
5154;DHT22;2595;53.584;10.084;2022-12-07T08:31:43;3.90;99.90
5154;DHT22;2595;53.584;10.084;2022-12-07T08:34:10;3.90;99.90
5154;DHT22;2595;53.584;10.084;2022-12-07T08:36:36;3.90;99.90
5154;DHT22;2595;53.584;10.084;2022-12-07T08:39:02;3.90;99.90
5154;DHT22;2595;53.584;10.084;2022-12-07T08:41:28;3.90;99.90
5154;DHT22;2595;53.584;10.084;2022-12-07T08:43:54;3.90;99.90
5154;DHT22;2595;53.584;10.084;2022-12-07T08:46:29;3.90;99.90
5154;DHT22;2595;53.584;10.084;2022-12-07T08:49:23;4.00;99.90
5154;DHT22;2595;53.584;10.084;2022-12-07T08:51:49;4.00;99.90
5154;DHT22;2595;53.584;10.084;2022-12-07T08:54:16;4.00;99.90
5154;DHT22;2595;53.584;10.084;2022-12-07T08:56:44;4.00;99.90
5154;DHT22;2595;53.584;10.084;2022-12-07T08:59:13;4.10;99.90
5154;DHT22;2595;53.584;10.084;2022-12-07T09:01:39;4.10;99.90
5154;DHT22;2595;53.584;10.084;2022-12-07T09:04:05;4.10;99.90
5154;DHT22;2595;53.584;10.084;2022-12-07T09:06:31;4.20;99.90
5154;DHT22;2595;53.584;10.084;2022-12-07T09:08:59;4.20;99.90
5154;DHT22;2595;53.584;10.084;2022-12-07T09:11:26;4.20;99.90
5154;DHT22;2595;53.584;10.084;2022-12-07T09:13:52;4.30;99.90
5154;DHT22;2595;53.584;10.084;2022-12-07T09:16:17;4.30;99.90
5154;DHT22;2595;53.584;10.084;2022-12-07T09:18:43;4.30;99.90
5154;DHT22;2595;53.584;10.084;2022-12-07T09:21:08;4.30;99.90
5154;DHT22;2595;53.584;10.084;2022-12-07T09:23:34;4.30;99.90
5154;DHT22;2595;53.584;10.084;2022-12-07T09:26:04;4.30;99.90
5154;DHT22;2595;53.584;10.084;2022-12-07T09:28:32;4.30;99.90
5154;DHT22;2595;53.584;10.084;2022-12-07T09:30:58;4.30;99.90
5154;DHT22;2595;53.584;10.084;2022-12-07T09:33:24;4.40;99.90
5154;DHT22;2595;53.584;10.084;2022-12-07T09:35:50;4.40;99.90
5154;DHT22;2595;53.584;10.084;2022-12-07T09:38:18;4.40;99.90
5154;DHT22;2595;53.584;10.084;2022-12-07T09:40:43;4.40;99.90
5154;DHT22;2595;53.584;10.084;2022-12-07T09:43:21;4.40;99.90
5154;DHT22;2595;53.584;10.084;2022-12-07T09:45:50;4.40;99.90
5154;DHT22;2595;53.584;10.084;2022-12-07T09:48:20;4.50;99.90
5154;DHT22;2595;53.584;10.084;2022-12-07T09:50:47;4.50;99.90
5154;DHT22;2595;53.584;10.084;2022-12-07T09:53:36;4.50;99.90
5154;DHT22;2595;53.584;10.084;2022-12-07T09:56:03;4.50;99.90
5154;DHT22;2595;53.584;10.084;2022-12-07T09:58:30;4.50;99.90
5154;DHT22;2595;53.584;10.084;2022-12-07T10:03:34;4.50;99.90
5154;DHT22;2595;53.584;10.084;2022-12-07T10:06:00;4.50;99.90
5154;DHT22;2595;53.584;10.084;2022-12-07T10:08:26;4.60;99.90
5154;DHT22;2595;53.584;10.084;2022-12-07T10:10:54;4.60;99.90
5154;DHT22;2595;53.584;10.084;2022-12-07T10:13:44;4.60;99.90
5154;DHT22;2595;53.584;10.084;2022-12-07T10:16:40;4.60;99.90
5154;DHT22;2595;53.584;10.084;2022-12-07T10:19:30;4.70;99.90
5154;DHT22;2595;53.584;10.084;2022-12-07T10:22:32;4.70;99.90
5154;DHT22;2595;53.584;10.084;2022-12-07T10:24:50;4.70;99.90
5154;DHT22;2595;53.584;10.084;2022-12-07T10:27:22;4.70;99.90
5154;DHT22;2595;53.584;10.084;2022-12-07T10:29:52;4.70;99.90
5154;DHT22;2595;53.584;10.084;2022-12-07T10:34:44;4.70;99.90
5154;DHT22;2595;53.584;10.084;2022-12-07T10:39:48;4.70;99.90
5154;DHT22;2595;53.584;10.084;2022-12-07T10:42:31;4.70;99.90
5154;DHT22;2595;53.584;10.084;2022-12-07T11:06:54;4.90;99.90
5154;DHT22;2595;53.584;10.084;2022-12-07T11:18:11;5.00;99.90
5154;DHT22;2595;53.584;10.084;2022-12-07T11:32:14;5.00;99.90
5154;DHT22;2595;53.584;10.084;2022-12-07T11:37:32;5.00;99.90
5154;DHT22;2595;53.584;10.084;2022-12-07T11:40:15;4.90;99.90
5154;DHT22;2595;53.584;10.084;2022-12-07T11:45:33;4.90;99.90
5154;DHT22;2595;53.584;10.084;2022-12-07T11:48:20;4.90;99.90
5154;DHT22;2595;53.584;10.084;2022-12-07T11:50:57;4.90;99.90
5154;DHT22;2595;53.584;10.084;2022-12-07T11:53:34;4.90;99.90
5154;DHT22;2595;53.584;10.084;2022-12-07T12:06:34;5.10;99.90
5154;DHT22;2595;53.584;10.084;2022-12-07T12:23:00;5.10;99.90
5154;DHT22;2595;53.584;10.084;2022-12-07T12:25:37;5.20;99.90
5154;DHT22;2595;53.584;10.084;2022-12-07T12:28:04;5.10;99.90
5154;DHT22;2595;53.584;10.084;2022-12-07T12:30:36;5.10;99.90
5154;DHT22;2595;53.584;10.084;2022-12-07T12:33:05;5.10;99.90
5154;DHT22;2595;53.584;10.084;2022-12-07T12:35:36;5.10;99.90
5154;DHT22;2595;53.584;10.084;2022-12-07T12:38:30;5.10;99.90
5154;DHT22;2595;53.584;10.084;2022-12-07T12:40:57;5.10;99.90
5154;DHT22;2595;53.584;10.084;2022-12-07T12:43:43;5.10;99.90
5154;DHT22;2595;53.584;10.084;2022-12-07T12:51:59;5.10;99.90
5154;DHT22;2595;53.584;10.084;2022-12-07T12:54:27;5.10;99.90
5154;DHT22;2595;53.584;10.084;2022-12-07T12:59:31;5.10;99.90
5154;DHT22;2595;53.584;10.084;2022-12-07T13:04:58;5.10;99.90
5154;DHT22;2595;53.584;10.084;2022-12-07T13:15:47;5.00;99.90
5154;DHT22;2595;53.584;10.084;2022-12-07T13:23:54;4.90;99.90
5154;DHT22;2595;53.584;10.084;2022-12-07T13:28:51;4.90;99.90
5154;DHT22;2595;53.584;10.084;2022-12-07T13:36:52;4.90;99.90
5154;DHT22;2595;53.584;10.084;2022-12-07T13:39:20;4.90;99.90
5154;DHT22;2595;53.584;10.084;2022-12-07T13:41:52;4.90;99.90
5154;DHT22;2595;53.584;10.084;2022-12-07T13:44:19;4.90;99.90
5154;DHT22;2595;53.584;10.084;2022-12-07T13:47:06;4.90;99.90
5154;DHT22;2595;53.584;10.084;2022-12-07T13:49:38;4.90;99.90
5154;DHT22;2595;53.584;10.084;2022-12-07T13:55:06;4.90;99.90
5154;DHT22;2595;53.584;10.084;2022-12-07T13:57:39;4.90;99.90
5154;DHT22;2595;53.584;10.084;2022-12-07T14:00:13;4.90;99.90
5154;DHT22;2595;53.584;10.084;2022-12-07T14:03:02;4.90;99.90
5154;DHT22;2595;53.584;10.084;2022-12-07T14:05:32;4.90;99.90
5154;DHT22;2595;53.584;10.084;2022-12-07T14:08:04;4.80;99.90
5154;DHT22;2595;53.584;10.084;2022-12-07T14:10:36;4.80;99.90
5154;DHT22;2595;53.584;10.084;2022-12-07T14:13:17;4.90;99.90
5154;DHT22;2595;53.584;10.084;2022-12-07T14:15:50;4.90;99.90
5154;DHT22;2595;53.584;10.084;2022-12-07T14:21:05;4.80;99.90
5154;DHT22;2595;53.584;10.084;2022-12-07T14:23:31;4.80;99.90
5154;DHT22;2595;53.584;10.084;2022-12-07T14:28:37;4.80;99.90
5154;DHT22;2595;53.584;10.084;2022-12-07T14:31:03;4.80;99.90
5154;DHT22;2595;53.584;10.084;2022-12-07T14:33:29;4.70;99.90
5154;DHT22;2595;53.584;10.084;2022-12-07T14:35:55;4.70;99.90
5154;DHT22;2595;53.584;10.084;2022-12-07T14:38:23;4.70;99.90
5154;DHT22;2595;53.584;10.084;2022-12-07T14:40:50;4.70;99.90
5154;DHT22;2595;53.584;10.084;2022-12-07T14:43:17;4.60;99.90
5154;DHT22;2595;53.584;10.084;2022-12-07T14:45:43;4.60;99.90
5154;DHT22;2595;53.584;10.084;2022-12-07T14:48:13;4.60;99.90
5154;DHT22;2595;53.584;10.084;2022-12-07T14:50:50;4.50;99.90
5154;DHT22;2595;53.584;10.084;2022-12-07T14:53:18;4.50;99.90
5154;DHT22;2595;53.584;10.084;2022-12-07T14:55:46;4.50;99.90
5154;DHT22;2595;53.584;10.084;2022-12-07T14:58:15;4.40;99.90
5154;DHT22;2595;53.584;10.084;2022-12-07T15:00:40;4.40;99.90
5154;DHT22;2595;53.584;10.084;2022-12-07T15:03:06;4.40;99.90
5154;DHT22;2595;53.584;10.084;2022-12-07T15:05:32;4.40;99.90
5154;DHT22;2595;53.584;10.084;2022-12-07T15:07:58;4.40;99.90
5154;DHT22;2595;53.584;10.084;2022-12-07T15:10:26;4.30;99.90
5154;DHT22;2595;53.584;10.084;2022-12-07T15:12:55;4.30;99.90
5154;DHT22;2595;53.584;10.084;2022-12-07T15:15:41;4.30;99.90
5154;DHT22;2595;53.584;10.084;2022-12-07T15:18:07;4.30;99.90
5154;DHT22;2595;53.584;10.084;2022-12-07T15:20:32;4.30;99.90
5154;DHT22;2595;53.584;10.084;2022-12-07T15:22:58;4.30;99.90
5154;DHT22;2595;53.584;10.084;2022-12-07T15:25:24;4.30;99.90
5154;DHT22;2595;53.584;10.084;2022-12-07T15:27:49;4.30;99.90
5154;DHT22;2595;53.584;10.084;2022-12-07T15:30:15;4.30;99.90
5154;DHT22;2595;53.584;10.084;2022-12-07T15:32:41;4.30;99.90
5154;DHT22;2595;53.584;10.084;2022-12-07T15:35:07;4.30;99.90
5154;DHT22;2595;53.584;10.084;2022-12-07T15:37:32;4.20;99.90
5154;DHT22;2595;53.584;10.084;2022-12-07T15:39:58;4.20;99.90
5154;DHT22;2595;53.584;10.084;2022-12-07T15:42:23;4.20;99.90
5154;DHT22;2595;53.584;10.084;2022-12-07T15:44:49;4.20;99.90
5154;DHT22;2595;53.584;10.084;2022-12-07T15:47:31;4.20;99.90
5154;DHT22;2595;53.584;10.084;2022-12-07T15:49:58;4.20;99.90
5154;DHT22;2595;53.584;10.084;2022-12-07T15:52:24;4.20;99.90
5154;DHT22;2595;53.584;10.084;2022-12-07T15:54:49;4.20;99.90
5154;DHT22;2595;53.584;10.084;2022-12-07T15:57:15;4.10;99.90
5154;DHT22;2595;53.584;10.084;2022-12-07T15:59:40;4.10;99.90
5154;DHT22;2595;53.584;10.084;2022-12-07T16:02:07;4.10;99.90
5154;DHT22;2595;53.584;10.084;2022-12-07T16:04:33;4.10;99.90
5154;DHT22;2595;53.584;10.084;2022-12-07T16:06:58;4.10;99.90
5154;DHT22;2595;53.584;10.084;2022-12-07T16:09:24;4.00;99.90
5154;DHT22;2595;53.584;10.084;2022-12-07T16:11:50;4.10;99.90
5154;DHT22;2595;53.584;10.084;2022-12-07T16:14:16;4.00;99.90
5154;DHT22;2595;53.584;10.084;2022-12-07T16:16:41;4.00;99.90
5154;DHT22;2595;53.584;10.084;2022-12-07T16:19:07;4.00;99.90
5154;DHT22;2595;53.584;10.084;2022-12-07T16:21:34;4.00;99.90
5154;DHT22;2595;53.584;10.084;2022-12-07T16:24:01;4.00;99.90
5154;DHT22;2595;53.584;10.084;2022-12-07T16:26:27;4.00;99.90
5154;DHT22;2595;53.584;10.084;2022-12-07T16:28:53;4.00;99.90
5154;DHT22;2595;53.584;10.084;2022-12-07T16:31:22;4.00;99.90
5154;DHT22;2595;53.584;10.084;2022-12-07T16:33:48;4.00;99.90
5154;DHT22;2595;53.584;10.084;2022-12-07T16:36:15;4.00;99.90
5154;DHT22;2595;53.584;10.084;2022-12-07T16:38:44;4.00;99.90
5154;DHT22;2595;53.584;10.084;2022-12-07T16:41:10;4.00;99.90
5154;DHT22;2595;53.584;10.084;2022-12-07T16:43:36;4.00;99.90
5154;DHT22;2595;53.584;10.084;2022-12-07T16:46:02;4.00;99.90
5154;DHT22;2595;53.584;10.084;2022-12-07T16:48:28;4.00;99.90
5154;DHT22;2595;53.584;10.084;2022-12-07T16:50:54;4.00;99.90
5154;DHT22;2595;53.584;10.084;2022-12-07T16:53:21;4.00;99.90
5154;DHT22;2595;53.584;10.084;2022-12-07T16:55:48;3.90;99.90
5154;DHT22;2595;53.584;10.084;2022-12-07T16:58:15;3.90;99.90
5154;DHT22;2595;53.584;10.084;2022-12-07T17:00:42;3.90;99.90
5154;DHT22;2595;53.584;10.084;2022-12-07T17:03:08;3.90;99.90
5154;DHT22;2595;53.584;10.084;2022-12-07T17:05:37;3.90;99.90
5154;DHT22;2595;53.584;10.084;2022-12-07T17:08:03;3.90;99.90
5154;DHT22;2595;53.584;10.084;2022-12-07T17:10:29;3.90;99.90
5154;DHT22;2595;53.584;10.084;2022-12-07T17:12:54;3.80;99.90
5154;DHT22;2595;53.584;10.084;2022-12-07T17:15:20;3.80;99.90
5154;DHT22;2595;53.584;10.084;2022-12-07T17:17:56;3.90;99.90
5154;DHT22;2595;53.584;10.084;2022-12-07T17:20:24;3.90;99.90
5154;DHT22;2595;53.584;10.084;2022-12-07T17:22:50;3.90;99.90
5154;DHT22;2595;53.584;10.084;2022-12-07T17:25:16;3.90;99.90
5154;DHT22;2595;53.584;10.084;2022-12-07T17:27:43;3.80;99.90
5154;DHT22;2595;53.584;10.084;2022-12-07T17:30:10;3.80;99.90
5154;DHT22;2595;53.584;10.084;2022-12-07T17:32:36;3.80;99.90
5154;DHT22;2595;53.584;10.084;2022-12-07T17:35:03;3.80;99.90
5154;DHT22;2595;53.584;10.084;2022-12-07T17:37:30;3.70;99.90
5154;DHT22;2595;53.584;10.084;2022-12-07T17:39:56;3.70;99.90
5154;DHT22;2595;53.584;10.084;2022-12-07T17:42:26;3.80;99.90
5154;DHT22;2595;53.584;10.084;2022-12-07T17:45:07;3.70;99.90
5154;DHT22;2595;53.584;10.084;2022-12-07T17:47:34;3.70;99.90
5154;DHT22;2595;53.584;10.084;2022-12-07T17:50:00;3.70;99.90
5154;DHT22;2595;53.584;10.084;2022-12-07T17:52:26;3.70;99.90
5154;DHT22;2595;53.584;10.084;2022-12-07T17:55:10;3.80;99.90
5154;DHT22;2595;53.584;10.084;2022-12-07T17:57:35;3.70;99.90
5154;DHT22;2595;53.584;10.084;2022-12-07T18:00:03;3.70;99.90
5154;DHT22;2595;53.584;10.084;2022-12-07T18:02:29;3.70;99.90
5154;DHT22;2595;53.584;10.084;2022-12-07T18:04:54;3.70;99.90
5154;DHT22;2595;53.584;10.084;2022-12-07T18:07:20;3.70;99.90
5154;DHT22;2595;53.584;10.084;2022-12-07T18:09:45;3.60;99.90
5154;DHT22;2595;53.584;10.084;2022-12-07T18:12:11;3.70;99.90
5154;DHT22;2595;53.584;10.084;2022-12-07T18:14:37;3.60;99.90
5154;DHT22;2595;53.584;10.084;2022-12-07T18:17:03;3.70;99.90
5154;DHT22;2595;53.584;10.084;2022-12-07T18:19:28;3.60;99.90
5154;DHT22;2595;53.584;10.084;2022-12-07T18:21:54;3.50;99.90
5154;DHT22;2595;53.584;10.084;2022-12-07T18:24:19;3.50;99.90
5154;DHT22;2595;53.584;10.084;2022-12-07T18:26:45;3.50;99.90
5154;DHT22;2595;53.584;10.084;2022-12-07T18:29:17;3.50;99.90
5154;DHT22;2595;53.584;10.084;2022-12-07T18:31:43;3.50;99.90
5154;DHT22;2595;53.584;10.084;2022-12-07T18:34:16;3.40;99.90
5154;DHT22;2595;53.584;10.084;2022-12-07T18:36:43;3.50;99.90
5154;DHT22;2595;53.584;10.084;2022-12-07T18:39:13;3.40;99.90
5154;DHT22;2595;53.584;10.084;2022-12-07T18:41:39;3.30;99.90
5154;DHT22;2595;53.584;10.084;2022-12-07T18:44:06;3.30;99.90